sensor_id;sensor_type;location;lat;lon;timestamp;temperature;humidity
4578;DHT22;2301;47.354;8.528;2024-02-21T00:01:41;7.90;78.60
4578;DHT22;2301;47.354;8.528;2024-02-21T00:04:09;7.80;78.60
4578;DHT22;2301;47.354;8.528;2024-02-21T00:16:37;7.50;79.20
4578;DHT22;2301;47.354;8.528;2024-02-21T00:19:08;7.50;79.40
4578;DHT22;2301;47.354;8.528;2024-02-21T00:21:35;7.40;79.50
4578;DHT22;2301;47.354;8.528;2024-02-21T00:24:02;7.40;79.70
4578;DHT22;2301;47.354;8.528;2024-02-21T00:26:29;7.30;79.70
4578;DHT22;2301;47.354;8.528;2024-02-21T00:28:56;7.30;79.70
4578;DHT22;2301;47.354;8.528;2024-02-21T00:31:23;7.30;80.00
4578;DHT22;2301;47.354;8.528;2024-02-21T00:33:51;7.40;80.20
4578;DHT22;2301;47.354;8.528;2024-02-21T00:36:18;7.20;80.10
4578;DHT22;2301;47.354;8.528;2024-02-21T00:38:45;7.20;80.10
4578;DHT22;2301;47.354;8.528;2024-02-21T00:41:12;7.30;80.30
4578;DHT22;2301;47.354;8.528;2024-02-21T00:43:39;7.30;80.50
4578;DHT22;2301;47.354;8.528;2024-02-21T00:46:06;7.30;80.50
4578;DHT22;2301;47.354;8.528;2024-02-21T00:48:33;7.30;80.60
4578;DHT22;2301;47.354;8.528;2024-02-21T00:51:02;7.20;80.70
4578;DHT22;2301;47.354;8.528;2024-02-21T00:53:29;7.20;80.80
4578;DHT22;2301;47.354;8.528;2024-02-21T00:55:56;7.10;80.90
4578;DHT22;2301;47.354;8.528;2024-02-21T00:58:23;7.10;81.10
4578;DHT22;2301;47.354;8.528;2024-02-21T01:00:50;7.00;81.20
4578;DHT22;2301;47.354;8.528;2024-02-21T01:03:17;7.00;81.30
4578;DHT22;2301;47.354;8.528;2024-02-21T01:05:44;7.00;81.30
4578;DHT22;2301;47.354;8.528;2024-02-21T01:08:12;7.00;81.30
4578;DHT22;2301;47.354;8.528;2024-02-21T01:10:42;7.00;81.30
4578;DHT22;2301;47.354;8.528;2024-02-21T01:13:09;7.00;81.30
4578;DHT22;2301;47.354;8.528;2024-02-21T01:15:36;6.90;81.30
4578;DHT22;2301;47.354;8.528;2024-02-21T01:18:04;7.00;81.50
4578;DHT22;2301;47.354;8.528;2024-02-21T01:20:31;7.00;81.50
4578;DHT22;2301;47.354;8.528;2024-02-21T01:22:58;7.00;81.60
4578;DHT22;2301;47.354;8.528;2024-02-21T01:25:26;7.00;81.50
4578;DHT22;2301;47.354;8.528;2024-02-21T01:27:53;7.00;81.50
4578;DHT22;2301;47.354;8.528;2024-02-21T01:30:20;7.00;81.50
4578;DHT22;2301;47.354;8.528;2024-02-21T01:32:47;7.00;81.50
4578;DHT22;2301;47.354;8.528;2024-02-21T01:35:14;7.00;81.60
4578;DHT22;2301;47.354;8.528;2024-02-21T01:37:41;7.00;81.80
4578;DHT22;2301;47.354;8.528;2024-02-21T01:40:09;7.10;82.00
4578;DHT22;2301;47.354;8.528;2024-02-21T01:42:39;7.00;81.90
4578;DHT22;2301;47.354;8.528;2024-02-21T01:45:07;7.00;81.90
4578;DHT22;2301;47.354;8.528;2024-02-21T01:47:34;7.00;81.90
4578;DHT22;2301;47.354;8.528;2024-02-21T01:50:02;7.00;81.90
4578;DHT22;2301;47.354;8.528;2024-02-21T01:52:30;7.00;81.90
4578;DHT22;2301;47.354;8.528;2024-02-21T01:54:58;6.90;82.10
4578;DHT22;2301;47.354;8.528;2024-02-21T01:57:26;6.90;82.40
4578;DHT22;2301;47.354;8.528;2024-02-21T01:59:55;7.00;82.80
4578;DHT22;2301;47.354;8.528;2024-02-21T02:02:23;7.00;82.80
4578;DHT22;2301;47.354;8.528;2024-02-21T02:04:51;7.00;82.80
4578;DHT22;2301;47.354;8.528;2024-02-21T02:07:19;7.00;82.70
4578;DHT22;2301;47.354;8.528;2024-02-21T02:09:46;7.00;82.70
4578;DHT22;2301;47.354;8.528;2024-02-21T02:12:13;7.20;82.90
4578;DHT22;2301;47.354;8.528;2024-02-21T02:14:40;7.10;82.70
4578;DHT22;2301;47.354;8.528;2024-02-21T02:17:08;7.20;82.80
4578;DHT22;2301;47.354;8.528;2024-02-21T02:19:35;7.10;82.80
4578;DHT22;2301;47.354;8.528;2024-02-21T02:22:09;7.10;82.90
4578;DHT22;2301;47.354;8.528;2024-02-21T02:24:40;7.10;82.90
4578;DHT22;2301;47.354;8.528;2024-02-21T02:27:07;7.10;82.90
4578;DHT22;2301;47.354;8.528;2024-02-21T02:29:34;7.10;83.10
4578;DHT22;2301;47.354;8.528;2024-02-21T02:32:01;7.10;83.30
4578;DHT22;2301;47.354;8.528;2024-02-21T02:34:28;7.10;83.50
4578;DHT22;2301;47.354;8.528;2024-02-21T02:36:56;7.10;83.60
4578;DHT22;2301;47.354;8.528;2024-02-21T02:39:23;7.20;83.80
4578;DHT22;2301;47.354;8.528;2024-02-21T02:41:51;7.20;83.90
4578;DHT22;2301;47.354;8.528;2024-02-21T02:44:18;7.20;84.00
4578;DHT22;2301;47.354;8.528;2024-02-21T02:46:47;7.20;84.00
4578;DHT22;2301;47.354;8.528;2024-02-21T02:49:15;7.20;83.80
4578;DHT22;2301;47.354;8.528;2024-02-21T02:51:42;7.20;83.50
4578;DHT22;2301;47.354;8.528;2024-02-21T02:54:09;7.20;83.40
4578;DHT22;2301;47.354;8.528;2024-02-21T02:56:36;7.30;83.50
4578;DHT22;2301;47.354;8.528;2024-02-21T02:59:11;7.20;83.60
4578;DHT22;2301;47.354;8.528;2024-02-21T03:01:44;7.20;84.00
4578;DHT22;2301;47.354;8.528;2024-02-21T03:04:16;7.10;84.10
4578;DHT22;2301;47.354;8.528;2024-02-21T03:06:45;7.20;84.30
4578;DHT22;2301;47.354;8.528;2024-02-21T03:09:12;7.10;84.10
4578;DHT22;2301;47.354;8.528;2024-02-21T03:11:42;7.20;84.20
4578;DHT22;2301;47.354;8.528;2024-02-21T03:14:17;7.20;84.20
4578;DHT22;2301;47.354;8.528;2024-02-21T03:16:47;7.20;84.10
4578;DHT22;2301;47.354;8.528;2024-02-21T03:19:14;7.10;84.00
4578;DHT22;2301;47.354;8.528;2024-02-21T03:21:41;7.20;84.00
4578;DHT22;2301;47.354;8.528;2024-02-21T03:24:08;7.20;83.90
4578;DHT22;2301;47.354;8.528;2024-02-21T03:26:35;7.20;83.90
4578;DHT22;2301;47.354;8.528;2024-02-21T03:29:03;7.20;84.00
4578;DHT22;2301;47.354;8.528;2024-02-21T03:31:31;7.20;84.00
4578;DHT22;2301;47.354;8.528;2024-02-21T03:33:58;7.20;84.90
4578;DHT22;2301;47.354;8.528;2024-02-21T03:36:25;7.40;84.40
4578;DHT22;2301;47.354;8.528;2024-02-21T03:38:52;7.10;84.10
4578;DHT22;2301;47.354;8.528;2024-02-21T03:41:19;7.20;84.10
4578;DHT22;2301;47.354;8.528;2024-02-21T03:43:46;7.10;83.80
4578;DHT22;2301;47.354;8.528;2024-02-21T03:46:13;7.10;83.70
4578;DHT22;2301;47.354;8.528;2024-02-21T03:48:42;6.90;83.40
4578;DHT22;2301;47.354;8.528;2024-02-21T03:51:09;7.10;83.50
4578;DHT22;2301;47.354;8.528;2024-02-21T03:53:36;7.10;83.40
4578;DHT22;2301;47.354;8.528;2024-02-21T03:56:03;7.20;83.40
4578;DHT22;2301;47.354;8.528;2024-02-21T03:58:31;7.00;83.00
4578;DHT22;2301;47.354;8.528;2024-02-21T04:01:00;7.00;83.10
4578;DHT22;2301;47.354;8.528;2024-02-21T04:03:27;7.00;83.00
4578;DHT22;2301;47.354;8.528;2024-02-21T04:05:56;7.00;82.80
4578;DHT22;2301;47.354;8.528;2024-02-21T04:08:23;7.00;83.40
4578;DHT22;2301;47.354;8.528;2024-02-21T04:10:50;7.10;82.60
4578;DHT22;2301;47.354;8.528;2024-02-21T04:13:17;7.00;82.40
4578;DHT22;2301;47.354;8.528;2024-02-21T04:15:44;7.00;82.30
4578;DHT22;2301;47.354;8.528;2024-02-21T04:18:11;7.00;82.90
4578;DHT22;2301;47.354;8.528;2024-02-21T04:20:38;7.00;82.10
4578;DHT22;2301;47.354;8.528;2024-02-21T04:23:06;7.10;82.20
4578;DHT22;2301;47.354;8.528;2024-02-21T04:25:33;7.10;82.20
4578;DHT22;2301;47.354;8.528;2024-02-21T04:28:00;7.20;82.30
4578;DHT22;2301;47.354;8.528;2024-02-21T04:30:27;7.10;82.10
4578;DHT22;2301;47.354;8.528;2024-02-21T04:32:54;7.10;81.90
4578;DHT22;2301;47.354;8.528;2024-02-21T04:35:21;7.30;82.00
4578;DHT22;2301;47.354;8.528;2024-02-21T04:37:49;7.10;81.80
4578;DHT22;2301;47.354;8.528;2024-02-21T04:40:18;7.10;81.70
4578;DHT22;2301;47.354;8.528;2024-02-21T04:42:45;7.10;81.70
4578;DHT22;2301;47.354;8.528;2024-02-21T04:45:12;7.00;81.50
4578;DHT22;2301;47.354;8.528;2024-02-21T04:47:39;7.20;81.70
4578;DHT22;2301;47.354;8.528;2024-02-21T04:50:06;7.10;81.60
4578;DHT22;2301;47.354;8.528;2024-02-21T04:52:34;7.20;81.80
4578;DHT22;2301;47.354;8.528;2024-02-21T04:55:00;7.20;81.60
4578;DHT22;2301;47.354;8.528;2024-02-21T04:57:29;7.20;81.40
4578;DHT22;2301;47.354;8.528;2024-02-21T04:59:56;7.20;81.40
4578;DHT22;2301;47.354;8.528;2024-02-21T05:02:23;7.20;81.50
4578;DHT22;2301;47.354;8.528;2024-02-21T05:04:50;7.20;81.50
4578;DHT22;2301;47.354;8.528;2024-02-21T05:07:17;7.20;81.50
4578;DHT22;2301;47.354;8.528;2024-02-21T05:09:45;7.20;81.60
4578;DHT22;2301;47.354;8.528;2024-02-21T05:12:12;7.10;81.60
4578;DHT22;2301;47.354;8.528;2024-02-21T05:14:40;7.20;81.80
4578;DHT22;2301;47.354;8.528;2024-02-21T05:17:07;7.30;82.20
4578;DHT22;2301;47.354;8.528;2024-02-21T05:19:34;7.10;82.20
4578;DHT22;2301;47.354;8.528;2024-02-21T05:22:01;7.10;82.30
4578;DHT22;2301;47.354;8.528;2024-02-21T05:24:28;7.10;82.30
4578;DHT22;2301;47.354;8.528;2024-02-21T05:26:56;7.10;82.30
4578;DHT22;2301;47.354;8.528;2024-02-21T05:29:23;7.10;82.30
4578;DHT22;2301;47.354;8.528;2024-02-21T05:31:57;7.10;82.40
4578;DHT22;2301;47.354;8.528;2024-02-21T05:34:25;7.00;82.30
4578;DHT22;2301;47.354;8.528;2024-02-21T05:36:52;7.10;82.30
4578;DHT22;2301;47.354;8.528;2024-02-21T05:39:19;7.20;82.40
4578;DHT22;2301;47.354;8.528;2024-02-21T05:41:48;7.00;82.30
4578;DHT22;2301;47.354;8.528;2024-02-21T05:44:15;7.10;82.60
4578;DHT22;2301;47.354;8.528;2024-02-21T05:46:42;7.10;82.70
4578;DHT22;2301;47.354;8.528;2024-02-21T05:49:11;7.20;82.80
4578;DHT22;2301;47.354;8.528;2024-02-21T05:51:38;7.10;82.90
4578;DHT22;2301;47.354;8.528;2024-02-21T05:54:05;6.90;82.70
4578;DHT22;2301;47.354;8.528;2024-02-21T05:56:33;7.00;82.80
4578;DHT22;2301;47.354;8.528;2024-02-21T05:58:59;7.00;82.80
4578;DHT22;2301;47.354;8.528;2024-02-21T06:01:27;7.10;82.90
4578;DHT22;2301;47.354;8.528;2024-02-21T06:03:54;7.00;82.80
4578;DHT22;2301;47.354;8.528;2024-02-21T06:06:25;7.00;82.80
4578;DHT22;2301;47.354;8.528;2024-02-21T06:08:53;7.00;83.10
4578;DHT22;2301;47.354;8.528;2024-02-21T06:11:21;7.00;83.30
4578;DHT22;2301;47.354;8.528;2024-02-21T06:13:48;6.90;83.30
4578;DHT22;2301;47.354;8.528;2024-02-21T06:16:14;6.90;83.40
4578;DHT22;2301;47.354;8.528;2024-02-21T06:18:41;6.90;83.40
4578;DHT22;2301;47.354;8.528;2024-02-21T06:21:08;6.90;83.40
4578;DHT22;2301;47.354;8.528;2024-02-21T06:23:38;6.90;83.50
4578;DHT22;2301;47.354;8.528;2024-02-21T06:26:05;6.90;83.50
4578;DHT22;2301;47.354;8.528;2024-02-21T06:28:32;6.90;83.50
4578;DHT22;2301;47.354;8.528;2024-02-21T06:30:59;6.90;83.40
4578;DHT22;2301;47.354;8.528;2024-02-21T06:33:26;6.90;83.40
4578;DHT22;2301;47.354;8.528;2024-02-21T06:35:53;6.90;83.50
4578;DHT22;2301;47.354;8.528;2024-02-21T06:38:20;6.90;83.50
4578;DHT22;2301;47.354;8.528;2024-02-21T06:40:48;6.90;83.60
4578;DHT22;2301;47.354;8.528;2024-02-21T06:43:18;6.90;83.50
4578;DHT22;2301;47.354;8.528;2024-02-21T06:45:45;6.90;83.50
4578;DHT22;2301;47.354;8.528;2024-02-21T06:48:16;7.00;83.60
4578;DHT22;2301;47.354;8.528;2024-02-21T06:50:43;7.00;83.60
4578;DHT22;2301;47.354;8.528;2024-02-21T06:53:10;6.80;83.40
4578;DHT22;2301;47.354;8.528;2024-02-21T06:55:38;7.00;83.60
4578;DHT22;2301;47.354;8.528;2024-02-21T06:58:06;6.90;83.70
4578;DHT22;2301;47.354;8.528;2024-02-21T07:00:37;7.00;83.80
4578;DHT22;2301;47.354;8.528;2024-02-21T07:03:04;7.00;83.80
4578;DHT22;2301;47.354;8.528;2024-02-21T07:05:31;7.00;83.80
4578;DHT22;2301;47.354;8.528;2024-02-21T07:07:58;6.90;83.80
4578;DHT22;2301;47.354;8.528;2024-02-21T07:10:25;7.00;83.90
4578;DHT22;2301;47.354;8.528;2024-02-21T07:12:53;6.80;83.80
4578;DHT22;2301;47.354;8.528;2024-02-21T07:15:21;7.00;83.90
4578;DHT22;2301;47.354;8.528;2024-02-21T07:17:52;7.10;84.10
4578;DHT22;2301;47.354;8.528;2024-02-21T07:20:19;7.10;84.00
4578;DHT22;2301;47.354;8.528;2024-02-21T07:22:46;7.10;83.80
4578;DHT22;2301;47.354;8.528;2024-02-21T07:25:16;7.10;83.90
4578;DHT22;2301;47.354;8.528;2024-02-21T07:27:44;7.20;84.20
4578;DHT22;2301;47.354;8.528;2024-02-21T07:30:12;7.30;84.30
4578;DHT22;2301;47.354;8.528;2024-02-21T07:32:40;7.30;84.50
4578;DHT22;2301;47.354;8.528;2024-02-21T07:35:09;7.50;84.90
4578;DHT22;2301;47.354;8.528;2024-02-21T07:37:51;7.40;85.00
4578;DHT22;2301;47.354;8.528;2024-02-21T07:40:20;7.50;84.90
4578;DHT22;2301;47.354;8.528;2024-02-21T07:42:48;7.60;85.00
4578;DHT22;2301;47.354;8.528;2024-02-21T07:45:16;7.70;84.70
4578;DHT22;2301;47.354;8.528;2024-02-21T07:47:46;7.70;84.40
4578;DHT22;2301;47.354;8.528;2024-02-21T07:50:16;7.80;84.20
4578;DHT22;2301;47.354;8.528;2024-02-21T07:52:46;7.80;84.10
4578;DHT22;2301;47.354;8.528;2024-02-21T07:55:22;7.90;84.00
4578;DHT22;2301;47.354;8.528;2024-02-21T07:57:54;7.90;84.20
4578;DHT22;2301;47.354;8.528;2024-02-21T08:00:22;8.00;84.70
4578;DHT22;2301;47.354;8.528;2024-02-21T08:02:57;8.10;84.70
4578;DHT22;2301;47.354;8.528;2024-02-21T08:05:29;8.20;83.70
4578;DHT22;2301;47.354;8.528;2024-02-21T08:08:00;8.30;83.20
4578;DHT22;2301;47.354;8.528;2024-02-21T08:10:31;8.40;83.20
4578;DHT22;2301;47.354;8.528;2024-02-21T08:12:59;8.50;83.60
4578;DHT22;2301;47.354;8.528;2024-02-21T08:15:29;8.60;83.50
4578;DHT22;2301;47.354;8.528;2024-02-21T08:18:07;8.80;84.00
4578;DHT22;2301;47.354;8.528;2024-02-21T08:20:36;9.00;83.90
4578;DHT22;2301;47.354;8.528;2024-02-21T08:23:04;9.20;83.20
4578;DHT22;2301;47.354;8.528;2024-02-21T08:25:55;9.50;82.40
4578;DHT22;2301;47.354;8.528;2024-02-21T08:28:37;9.50;81.80
4578;DHT22;2301;47.354;8.528;2024-02-21T08:31:08;9.80;81.10
4578;DHT22;2301;47.354;8.528;2024-02-21T08:33:51;9.90;79.60
4578;DHT22;2301;47.354;8.528;2024-02-21T08:36:34;10.00;78.40
4578;DHT22;2301;47.354;8.528;2024-02-21T08:39:20;10.10;78.60
4578;DHT22;2301;47.354;8.528;2024-02-21T08:41:48;10.30;77.60
4578;DHT22;2301;47.354;8.528;2024-02-21T08:44:16;10.40;75.70
4578;DHT22;2301;47.354;8.528;2024-02-21T08:47:04;10.50;75.80
4578;DHT22;2301;47.354;8.528;2024-02-21T08:49:43;10.60;75.00
4578;DHT22;2301;47.354;8.528;2024-02-21T08:52:14;10.50;74.40
4578;DHT22;2301;47.354;8.528;2024-02-21T08:54:41;10.60;74.30
4578;DHT22;2301;47.354;8.528;2024-02-21T08:57:12;10.80;74.80
4578;DHT22;2301;47.354;8.528;2024-02-21T08:59:40;11.00;75.10
4578;DHT22;2301;47.354;8.528;2024-02-21T09:02:07;11.10;74.80
4578;DHT22;2301;47.354;8.528;2024-02-21T09:04:36;11.30;74.00
4578;DHT22;2301;47.354;8.528;2024-02-21T09:07:04;11.30;74.10
4578;DHT22;2301;47.354;8.528;2024-02-21T09:09:31;11.50;73.70
4578;DHT22;2301;47.354;8.528;2024-02-21T09:11:58;11.70;72.70
4578;DHT22;2301;47.354;8.528;2024-02-21T09:14:31;11.80;74.90
4578;DHT22;2301;47.354;8.528;2024-02-21T09:16:58;11.90;72.10
4578;DHT22;2301;47.354;8.528;2024-02-21T09:19:25;12.10;70.30
4578;DHT22;2301;47.354;8.528;2024-02-21T09:21:54;12.20;69.20
4578;DHT22;2301;47.354;8.528;2024-02-21T09:24:21;12.20;68.00
4578;DHT22;2301;47.354;8.528;2024-02-21T09:26:48;12.20;67.10
4578;DHT22;2301;47.354;8.528;2024-02-21T09:29:15;12.30;66.70
4578;DHT22;2301;47.354;8.528;2024-02-21T09:31:42;12.30;65.70
4578;DHT22;2301;47.354;8.528;2024-02-21T09:34:09;12.40;66.10
4578;DHT22;2301;47.354;8.528;2024-02-21T09:36:38;12.50;65.40
4578;DHT22;2301;47.354;8.528;2024-02-21T09:39:12;12.50;63.80
4578;DHT22;2301;47.354;8.528;2024-02-21T09:41:47;12.50;63.60
4578;DHT22;2301;47.354;8.528;2024-02-21T09:44:19;12.60;64.00
4578;DHT22;2301;47.354;8.528;2024-02-21T09:46:52;12.60;64.30
4578;DHT22;2301;47.354;8.528;2024-02-21T09:49:30;12.60;63.60
4578;DHT22;2301;47.354;8.528;2024-02-21T09:52:00;12.60;62.30
4578;DHT22;2301;47.354;8.528;2024-02-21T09:54:30;12.60;62.00
4578;DHT22;2301;47.354;8.528;2024-02-21T09:56:57;12.60;61.60
4578;DHT22;2301;47.354;8.528;2024-02-21T09:59:25;12.60;61.40
4578;DHT22;2301;47.354;8.528;2024-02-21T10:01:53;12.70;62.60
4578;DHT22;2301;47.354;8.528;2024-02-21T10:04:21;12.80;62.20
4578;DHT22;2301;47.354;8.528;2024-02-21T10:06:48;12.90;62.40
4578;DHT22;2301;47.354;8.528;2024-02-21T10:09:22;13.10;61.80
4578;DHT22;2301;47.354;8.528;2024-02-21T10:11:50;13.20;61.30
4578;DHT22;2301;47.354;8.528;2024-02-21T10:14:17;13.30;60.60
4578;DHT22;2301;47.354;8.528;2024-02-21T10:16:46;13.40;60.20
4578;DHT22;2301;47.354;8.528;2024-02-21T10:19:17;13.50;59.40
4578;DHT22;2301;47.354;8.528;2024-02-21T10:21:45;13.60;59.10
4578;DHT22;2301;47.354;8.528;2024-02-21T10:24:12;13.70;59.30
4578;DHT22;2301;47.354;8.528;2024-02-21T10:26:39;13.80;59.20
4578;DHT22;2301;47.354;8.528;2024-02-21T10:29:07;13.80;57.50
4578;DHT22;2301;47.354;8.528;2024-02-21T10:31:36;13.70;56.60
4578;DHT22;2301;47.354;8.528;2024-02-21T10:34:04;13.70;56.80
4578;DHT22;2301;47.354;8.528;2024-02-21T10:36:31;13.80;56.90
4578;DHT22;2301;47.354;8.528;2024-02-21T10:38:58;13.80;56.20
4578;DHT22;2301;47.354;8.528;2024-02-21T10:41:25;13.90;56.50
4578;DHT22;2301;47.354;8.528;2024-02-21T10:43:54;13.90;56.40
4578;DHT22;2301;47.354;8.528;2024-02-21T10:46:23;13.90;56.20
4578;DHT22;2301;47.354;8.528;2024-02-21T10:48:58;13.90;55.50
4578;DHT22;2301;47.354;8.528;2024-02-21T10:51:32;14.00;55.60
4578;DHT22;2301;47.354;8.528;2024-02-21T10:54:09;13.90;55.00
4578;DHT22;2301;47.354;8.528;2024-02-21T10:56:39;14.00;55.00
4578;DHT22;2301;47.354;8.528;2024-02-21T10:59:07;14.00;55.00
4578;DHT22;2301;47.354;8.528;2024-02-21T11:01:36;14.10;55.40
4578;DHT22;2301;47.354;8.528;2024-02-21T11:04:05;14.10;54.20
4578;DHT22;2301;47.354;8.528;2024-02-21T11:06:34;14.10;53.90
4578;DHT22;2301;47.354;8.528;2024-02-21T11:09:04;14.20;54.10
4578;DHT22;2301;47.354;8.528;2024-02-21T11:11:34;14.30;54.00
4578;DHT22;2301;47.354;8.528;2024-02-21T11:14:07;14.30;54.10
4578;DHT22;2301;47.354;8.528;2024-02-21T11:16:39;14.40;54.50
4578;DHT22;2301;47.354;8.528;2024-02-21T11:19:07;14.40;54.30
4578;DHT22;2301;47.354;8.528;2024-02-21T11:21:35;14.40;54.00
4578;DHT22;2301;47.354;8.528;2024-02-21T11:24:02;14.30;54.00
4578;DHT22;2301;47.354;8.528;2024-02-21T11:26:30;14.40;57.40
4578;DHT22;2301;47.354;8.528;2024-02-21T11:28:58;14.40;55.10
4578;DHT22;2301;47.354;8.528;2024-02-21T11:31:26;14.40;54.30
4578;DHT22;2301;47.354;8.528;2024-02-21T11:33:57;14.30;54.80
4578;DHT22;2301;47.354;8.528;2024-02-21T11:36:27;14.30;55.60
4578;DHT22;2301;47.354;8.528;2024-02-21T11:38:54;14.30;55.70
4578;DHT22;2301;47.354;8.528;2024-02-21T11:41:21;14.30;55.30
4578;DHT22;2301;47.354;8.528;2024-02-21T11:43:49;14.30;55.10
4578;DHT22;2301;47.354;8.528;2024-02-21T11:46:17;14.20;55.00
4578;DHT22;2301;47.354;8.528;2024-02-21T11:48:44;14.20;54.80
4578;DHT22;2301;47.354;8.528;2024-02-21T11:51:25;14.20;55.20
4578;DHT22;2301;47.354;8.528;2024-02-21T11:53:53;14.30;57.20
4578;DHT22;2301;47.354;8.528;2024-02-21T11:56:20;14.30;55.70
4578;DHT22;2301;47.354;8.528;2024-02-21T11:58:48;14.30;54.90
4578;DHT22;2301;47.354;8.528;2024-02-21T12:01:15;14.30;54.70
4578;DHT22;2301;47.354;8.528;2024-02-21T12:03:42;14.30;54.80
4578;DHT22;2301;47.354;8.528;2024-02-21T12:06:16;14.30;55.10
4578;DHT22;2301;47.354;8.528;2024-02-21T12:08:47;14.30;55.40
4578;DHT22;2301;47.354;8.528;2024-02-21T12:11:19;14.50;60.10
4578;DHT22;2301;47.354;8.528;2024-02-21T12:13:46;14.90;66.40
4578;DHT22;2301;47.354;8.528;2024-02-21T12:16:15;15.00;59.30
4578;DHT22;2301;47.354;8.528;2024-02-21T12:18:43;15.00;56.60
4578;DHT22;2301;47.354;8.528;2024-02-21T12:21:10;14.90;55.20
4578;DHT22;2301;47.354;8.528;2024-02-21T12:23:38;14.80;54.60
4578;DHT22;2301;47.354;8.528;2024-02-21T12:26:06;14.70;54.90
4578;DHT22;2301;47.354;8.528;2024-02-21T12:28:33;14.70;54.70
4578;DHT22;2301;47.354;8.528;2024-02-21T12:31:00;14.60;54.60
4578;DHT22;2301;47.354;8.528;2024-02-21T12:33:30;14.50;53.90
4578;DHT22;2301;47.354;8.528;2024-02-21T12:35:57;14.50;53.80
4578;DHT22;2301;47.354;8.528;2024-02-21T12:38:24;14.50;53.60
4578;DHT22;2301;47.354;8.528;2024-02-21T12:40:51;14.40;53.60
4578;DHT22;2301;47.354;8.528;2024-02-21T12:43:19;14.30;53.80
4578;DHT22;2301;47.354;8.528;2024-02-21T12:45:48;14.30;54.10
4578;DHT22;2301;47.354;8.528;2024-02-21T12:48:15;14.30;54.00
4578;DHT22;2301;47.354;8.528;2024-02-21T12:50:48;14.40;54.30
4578;DHT22;2301;47.354;8.528;2024-02-21T12:53:17;14.40;54.30
4578;DHT22;2301;47.354;8.528;2024-02-21T12:55:44;14.50;54.50
4578;DHT22;2301;47.354;8.528;2024-02-21T12:58:11;14.50;54.20
4578;DHT22;2301;47.354;8.528;2024-02-21T13:00:41;14.50;53.60
4578;DHT22;2301;47.354;8.528;2024-02-21T13:03:08;14.60;53.30
4578;DHT22;2301;47.354;8.528;2024-02-21T13:05:35;14.50;53.60
4578;DHT22;2301;47.354;8.528;2024-02-21T13:08:03;14.70;54.20
4578;DHT22;2301;47.354;8.528;2024-02-21T13:10:29;14.90;54.60
4578;DHT22;2301;47.354;8.528;2024-02-21T13:12:56;15.00;54.50
4578;DHT22;2301;47.354;8.528;2024-02-21T13:15:22;15.20;54.80
4578;DHT22;2301;47.354;8.528;2024-02-21T13:17:51;15.20;54.00
4578;DHT22;2301;47.354;8.528;2024-02-21T13:20:18;15.10;52.70
4578;DHT22;2301;47.354;8.528;2024-02-21T13:22:45;15.00;52.10
4578;DHT22;2301;47.354;8.528;2024-02-21T13:25:11;15.00;52.10
4578;DHT22;2301;47.354;8.528;2024-02-21T13:27:40;14.90;52.30
4578;DHT22;2301;47.354;8.528;2024-02-21T13:30:08;14.90;52.40
4578;DHT22;2301;47.354;8.528;2024-02-21T13:32:36;14.80;51.90
4578;DHT22;2301;47.354;8.528;2024-02-21T13:35:06;14.70;51.90
4578;DHT22;2301;47.354;8.528;2024-02-21T13:37:36;14.60;51.60
4578;DHT22;2301;47.354;8.528;2024-02-21T13:40:07;14.50;52.20
4578;DHT22;2301;47.354;8.528;2024-02-21T13:42:37;14.50;52.60
4578;DHT22;2301;47.354;8.528;2024-02-21T13:45:07;14.40;52.80
4578;DHT22;2301;47.354;8.528;2024-02-21T13:47:38;14.40;52.70
4578;DHT22;2301;47.354;8.528;2024-02-21T13:50:10;14.30;52.70
4578;DHT22;2301;47.354;8.528;2024-02-21T13:52:39;14.30;52.70
4578;DHT22;2301;47.354;8.528;2024-02-21T13:55:07;14.30;52.80
4578;DHT22;2301;47.354;8.528;2024-02-21T13:57:35;14.30;52.80
4578;DHT22;2301;47.354;8.528;2024-02-21T14:00:02;14.30;52.80
4578;DHT22;2301;47.354;8.528;2024-02-21T14:02:30;14.40;53.30
4578;DHT22;2301;47.354;8.528;2024-02-21T14:04:57;14.30;52.80
4578;DHT22;2301;47.354;8.528;2024-02-21T14:07:26;14.30;52.90
4578;DHT22;2301;47.354;8.528;2024-02-21T14:09:53;14.30;52.80
4578;DHT22;2301;47.354;8.528;2024-02-21T14:12:20;14.30;53.20
4578;DHT22;2301;47.354;8.528;2024-02-21T14:14:47;14.30;53.50
4578;DHT22;2301;47.354;8.528;2024-02-21T14:17:15;14.30;53.40
4578;DHT22;2301;47.354;8.528;2024-02-21T14:19:42;14.30;53.80
4578;DHT22;2301;47.354;8.528;2024-02-21T14:22:10;14.30;54.20
4578;DHT22;2301;47.354;8.528;2024-02-21T14:24:38;14.40;54.70
4578;DHT22;2301;47.354;8.528;2024-02-21T14:27:05;14.30;54.80
4578;DHT22;2301;47.354;8.528;2024-02-21T14:29:34;14.20;55.00
4578;DHT22;2301;47.354;8.528;2024-02-21T14:32:01;14.20;55.40
4578;DHT22;2301;47.354;8.528;2024-02-21T14:34:28;14.10;55.70
4578;DHT22;2301;47.354;8.528;2024-02-21T14:36:55;14.10;55.90
4578;DHT22;2301;47.354;8.528;2024-02-21T14:39:22;14.20;55.80
4578;DHT22;2301;47.354;8.528;2024-02-21T14:41:51;14.20;55.50
4578;DHT22;2301;47.354;8.528;2024-02-21T14:44:17;14.10;55.30
4578;DHT22;2301;47.354;8.528;2024-02-21T14:46:44;14.10;55.50
4578;DHT22;2301;47.354;8.528;2024-02-21T14:49:11;14.10;55.80
4578;DHT22;2301;47.354;8.528;2024-02-21T14:51:38;14.00;55.70
4578;DHT22;2301;47.354;8.528;2024-02-21T14:54:05;14.00;55.40
4578;DHT22;2301;47.354;8.528;2024-02-21T14:56:32;13.90;54.90
4578;DHT22;2301;47.354;8.528;2024-02-21T14:59:00;13.90;53.90
4578;DHT22;2301;47.354;8.528;2024-02-21T15:01:27;13.90;53.80
4578;DHT22;2301;47.354;8.528;2024-02-21T15:03:54;13.90;53.80
4578;DHT22;2301;47.354;8.528;2024-02-21T15:06:21;13.90;54.00
4578;DHT22;2301;47.354;8.528;2024-02-21T15:08:48;13.90;53.60
4578;DHT22;2301;47.354;8.528;2024-02-21T15:11:15;13.80;54.00
4578;DHT22;2301;47.354;8.528;2024-02-21T15:13:43;13.80;54.30
4578;DHT22;2301;47.354;8.528;2024-02-21T15:16:13;13.80;54.00
4578;DHT22;2301;47.354;8.528;2024-02-21T15:18:39;13.70;53.80
4578;DHT22;2301;47.354;8.528;2024-02-21T15:21:06;13.70;53.50
4578;DHT22;2301;47.354;8.528;2024-02-21T15:23:39;13.70;53.20
4578;DHT22;2301;47.354;8.528;2024-02-21T15:26:06;13.70;53.60
4578;DHT22;2301;47.354;8.528;2024-02-21T15:28:32;13.70;53.90
4578;DHT22;2301;47.354;8.528;2024-02-21T15:31:00;13.60;54.30
4578;DHT22;2301;47.354;8.528;2024-02-21T15:33:30;13.60;54.60
4578;DHT22;2301;47.354;8.528;2024-02-21T15:35:57;13.60;54.70
4578;DHT22;2301;47.354;8.528;2024-02-21T15:38:24;13.60;54.70
4578;DHT22;2301;47.354;8.528;2024-02-21T15:40:51;13.60;54.70
4578;DHT22;2301;47.354;8.528;2024-02-21T15:43:18;13.60;55.40
4578;DHT22;2301;47.354;8.528;2024-02-21T15:45:45;13.50;55.20
4578;DHT22;2301;47.354;8.528;2024-02-21T15:48:12;13.50;55.20
4578;DHT22;2301;47.354;8.528;2024-02-21T15:50:41;13.40;55.40
4578;DHT22;2301;47.354;8.528;2024-02-21T15:53:10;13.40;55.30
4578;DHT22;2301;47.354;8.528;2024-02-21T15:55:39;13.30;55.10
4578;DHT22;2301;47.354;8.528;2024-02-21T15:58:09;13.20;55.40
4578;DHT22;2301;47.354;8.528;2024-02-21T16:00:36;13.10;55.50
4578;DHT22;2301;47.354;8.528;2024-02-21T16:03:04;13.20;55.80
4578;DHT22;2301;47.354;8.528;2024-02-21T16:05:31;13.20;56.00
4578;DHT22;2301;47.354;8.528;2024-02-21T16:07:59;13.10;56.20
4578;DHT22;2301;47.354;8.528;2024-02-21T16:10:26;13.10;56.40
4578;DHT22;2301;47.354;8.528;2024-02-21T16:12:53;13.10;56.30
4578;DHT22;2301;47.354;8.528;2024-02-21T16:15:20;13.10;55.60
4578;DHT22;2301;47.354;8.528;2024-02-21T16:17:48;13.10;56.00
4578;DHT22;2301;47.354;8.528;2024-02-21T16:20:15;13.10;56.70
4578;DHT22;2301;47.354;8.528;2024-02-21T16:22:42;13.10;57.20
4578;DHT22;2301;47.354;8.528;2024-02-21T16:25:12;13.10;57.30
4578;DHT22;2301;47.354;8.528;2024-02-21T16:27:39;13.10;57.70